Time;durP1;ratioP1;P1;durP2;ratioP2;P2;SDS_P1;SDS_P2;PMS_P1;PMS_P2;Temp;Humidity;BMP_temperature;BMP_pressure;BME280_temperature;BME280_humidity;BME280_pressure;Samples;Min_cycle;Max_cycle;Signal;HPM_P1;HPM_P2
2023/05/19 00:01:53;;;;;;;8.20;4.10;;;8.50;99.90;;;;;;5096407;28;20048;-64
2023/05/19 00:04:21;;;;;;;8.68;4.32;;;8.50;99.90;;;;;;5096860;28;20455;-64
2023/05/19 00:06:50;;;;;;;10.15;4.75;;;8.50;99.90;;;;;;5097475;28;20055;-64
2023/05/19 00:09:17;;;;;;;7.47;4.53;;;8.50;99.90;;;;;;5097882;28;20047;-64
2023/05/19 00:11:43;;;;;;;9.20;4.30;;;8.40;99.90;;;;;;5097394;28;20047;-64
2023/05/19 00:14:10;;;;;;;9.95;5.25;;;8.50;99.90;;;;;;5097044;28;20043;-63
2023/05/19 00:16:37;;;;;;;12.45;5.00;;;8.50;99.90;;;;;;5096790;28;20056;-64
2023/05/19 00:19:04;;;;;;;10.25;4.50;;;8.40;99.90;;;;;;5097076;28;20048;-64
2023/05/19 00:21:31;;;;;;;11.57;4.53;;;8.40;99.90;;;;;;5079634;28;20051;-64
2023/05/19 00:23:58;;;;;;;8.10;4.63;;;8.40;99.90;;;;;;5096971;28;20052;-65
2023/05/19 00:26:25;;;;;;;9.73;4.75;;;8.50;99.90;;;;;;5079809;28;20403;-64
2023/05/19 00:28:52;;;;;;;8.95;4.43;;;8.40;99.90;;;;;;5096485;28;20383;-64
2023/05/19 00:31:18;;;;;;;11.73;4.93;;;8.40;99.90;;;;;;5096406;28;20047;-64
2023/05/19 00:33:45;;;;;;;9.10;4.72;;;8.30;99.90;;;;;;5096822;28;20051;-64
2023/05/19 00:36:11;;;;;;;9.20;4.40;;;8.40;99.90;;;;;;5096215;28;20055;-64
2023/05/19 00:38:38;;;;;;;11.48;4.50;;;8.30;99.90;;;;;;5096356;28;20082;-64
2023/05/19 00:41:05;;;;;;;13.23;4.97;;;8.30;99.90;;;;;;5096139;28;20054;-65
2023/05/19 00:43:33;;;;;;;7.07;4.55;;;8.30;99.90;;;;;;5096360;28;20059;-64
2023/05/19 00:45:59;;;;;;;10.07;4.10;;;8.30;99.90;;;;;;5107890;28;20108;-64
2023/05/19 00:48:26;;;;;;;11.98;4.82;;;8.20;99.90;;;;;;5096389;28;20048;-64
2023/05/19 00:50:54;;;;;;;10.80;4.55;;;8.20;99.90;;;;;;5112801;28;20059;-65
2023/05/19 00:53:23;;;;;;;11.38;4.80;;;8.20;99.90;;;;;;5112956;28;20051;-64
2023/05/19 00:55:49;;;;;;;12.30;5.57;;;8.10;99.90;;;;;;5112231;28;20052;-64
2023/05/19 00:58:17;;;;;;;10.95;5.03;;;8.20;99.90;;;;;;5113309;28;20051;-65
2023/05/19 01:00:44;;;;;;;10.00;5.25;;;8.10;99.90;;;;;;5112725;28;20418;-64
2023/05/19 01:03:10;;;;;;;13.07;5.28;;;8.20;99.90;;;;;;5095995;28;20051;-63
2023/05/19 01:05:40;;;;;;;13.00;6.25;;;8.20;99.90;;;;;;5112600;28;20071;-64
2023/05/19 01:08:07;;;;;;;12.20;5.47;;;8.10;99.90;;;;;;5096319;28;20059;-64
2023/05/19 01:10:34;;;;;;;10.57;5.28;;;8.10;99.90;;;;;;5113293;28;20406;-64
2023/05/19 01:13:03;;;;;;;11.88;5.30;;;8.00;99.90;;;;;;5112786;28;20120;-64
2023/05/19 01:15:32;;;;;;;14.25;5.13;;;8.00;99.90;;;;;;5090999;28;20070;-64
2023/05/19 01:18:15;;;;;;;12.75;5.30;;;8.00;99.90;;;;;;5099997;28;20075;-64
2023/05/19 01:20:46;;;;;;;13.45;5.30;;;8.00;99.90;;;;;;5082303;28;20138;-64
2023/05/19 01:23:31;;;;;;;11.85;4.90;;;7.90;99.90;;;;;;5099740;28;20051;-64
2023/05/19 01:26:35;;;;;;;12.27;5.50;;;7.90;99.90;;;;;;5100269;28;20087;-64
2023/05/19 01:29:28;;;;;;;9.07;4.72;;;8.00;99.90;;;;;;5082729;28;20104;-64
2023/05/19 01:31:58;;;;;;;10.60;5.45;;;7.90;99.90;;;;;;5099651;28;20051;-64
2023/05/19 01:34:26;;;;;;;10.93;5.75;;;7.90;99.90;;;;;;5082892;28;20130;-64
2023/05/19 01:36:54;;;;;;;8.57;5.55;;;7.90;99.90;;;;;;5116979;27;20051;-64
2023/05/19 01:39:22;;;;;;;9.75;4.32;;;7.90;99.90;;;;;;5120319;27;20051;-64
2023/05/19 01:41:51;;;;;;;14.40;5.93;;;7.80;99.90;;;;;;5103041;27;20114;-64
2023/05/19 01:44:18;;;;;;;11.25;5.75;;;7.90;99.90;;;;;;5102321;27;20040;-64
2023/05/19 01:46:44;;;;;;;8.43;5.20;;;7.80;99.90;;;;;;5080270;28;20141;-64
2023/05/19 01:49:12;;;;;;;10.05;5.60;;;7.80;99.90;;;;;;5099650;28;20062;-64
2023/05/19 01:51:39;;;;;;;9.20;5.13;;;7.90;99.90;;;;;;5099272;28;20556;-64
2023/05/19 01:54:06;;;;;;;12.60;5.65;;;7.80;99.90;;;;;;5082676;28;20072;-64
2023/05/19 01:56:53;;;;;;;9.50;5.15;;;7.70;99.90;;;;;;5099113;28;20059;-64
2023/05/19 01:59:36;;;;;;;14.10;5.15;;;7.80;99.90;;;;;;5099436;28;20064;-64
2023/05/19 02:02:25;;;;;;;11.93;5.28;;;7.70;99.90;;;;;;5099032;28;20106;-64
2023/05/19 02:05:01;;;;;;;11.77;4.97;;;7.70;99.90;;;;;;5099134;28;20039;-63
2023/05/19 02:07:41;;;;;;;11.65;5.88;;;7.60;99.90;;;;;;5098998;28;20044;-64
2023/05/19 02:10:17;;;;;;;10.93;5.38;;;7.70;99.90;;;;;;5099098;28;20128;-64
2023/05/19 02:12:45;;;;;;;13.00;5.22;;;7.70;99.90;;;;;;5098719;28;20063;-64
2023/05/19 02:15:11;;;;;;;11.45;5.35;;;7.60;99.90;;;;;;5107077;27;20104;-64
2023/05/19 02:17:46;;;;;;;12.43;5.60;;;7.70;99.90;;;;;;5119283;27;20051;-63
2023/05/19 02:20:14;;;;;;;9.30;5.28;;;7.60;99.90;;;;;;5118982;27;20117;-64
2023/05/19 02:22:41;;;;;;;10.57;5.53;;;7.60;99.90;;;;;;5118749;27;20089;-64
2023/05/19 02:25:08;;;;;;;9.30;5.40;;;7.60;99.90;;;;;;5111847;28;20354;-64
2023/05/19 02:27:36;;;;;;;14.35;5.20;;;7.60;99.90;;;;;;5098218;28;20452;-64
2023/05/19 02:30:03;;;;;;;8.90;5.68;;;7.60;99.90;;;;;;5098077;28;20052;-64
2023/05/19 02:32:31;;;;;;;10.18;5.32;;;7.50;99.90;;;;;;5081734;28;20079;-64
2023/05/19 02:34:57;;;;;;;10.18;5.75;;;7.50;99.90;;;;;;5102223;27;20048;-64
2023/05/19 02:37:24;;;;;;;13.05;5.28;;;7.50;99.90;;;;;;5118869;27;20051;-64
2023/05/19 02:39:50;;;;;;;10.02;5.55;;;7.50;99.90;;;;;;5101955;27;20078;-64
2023/05/19 02:42:17;;;;;;;13.45;4.93;;;7.50;99.90;;;;;;5118548;27;20049;-64
2023/05/19 02:44:43;;;;;;;11.18;5.00;;;7.50;99.90;;;;;;5114447;28;20101;-64
2023/05/19 02:47:09;;;;;;;10.02;5.03;;;7.50;99.90;;;;;;5080697;28;20059;-64
2023/05/19 02:49:35;;;;;;;15.63;6.18;;;7.50;99.90;;;;;;5097933;28;20474;-64
2023/05/19 02:52:05;;;;;;;10.75;5.72;;;7.50;99.90;;;;;;5098474;28;20059;-64
2023/05/19 02:54:33;;;;;;;12.95;6.45;;;7.40;99.90;;;;;;5098473;28;20379;-64
2023/05/19 02:57:00;;;;;;;10.73;5.95;;;7.50;99.90;;;;;;5098377;28;20081;-64
2023/05/19 02:59:26;;;;;;;12.55;5.70;;;7.50;99.90;;;;;;5098066;28;20043;-64
2023/05/19 03:01:55;;;;;;;12.80;5.95;;;7.40;99.90;;;;;;5097797;28;20083;-64
2023/05/19 03:04:21;;;;;;;10.90;4.93;;;7.50;99.90;;;;;;5097811;28;20433;-64
2023/05/19 03:06:47;;;;;;;10.43;4.72;;;7.40;99.90;;;;;;5115081;28;20063;-64
2023/05/19 03:09:14;;;;;;;13.50;5.40;;;7.50;99.90;;;;;;5118047;27;20043;-64
2023/05/19 03:11:40;;;;;;;13.23;5.90;;;7.40;99.90;;;;;;5118508;27;20383;-64
2023/05/19 03:14:09;;;;;;;9.93;5.50;;;7.50;99.90;;;;;;5117979;27;20051;-64
2023/05/19 03:16:35;;;;;;;11.85;5.32;;;7.40;99.90;;;;;;5117962;27;20061;-63
2023/05/19 03:19:02;;;;;;;9.80;5.28;;;7.50;99.90;;;;;;5118096;27;20082;-64
2023/05/19 03:21:29;;;;;;;13.50;5.97;;;7.40;99.90;;;;;;5117601;27;20147;-64
2023/05/19 03:23:55;;;;;;;10.20;5.60;;;7.40;99.90;;;;;;5117823;27;20043;-63
2023/05/19 03:26:21;;;;;;;10.23;5.32;;;7.50;99.90;;;;;;5079585;28;20488;-64
2023/05/19 03:28:48;;;;;;;12.70;6.35;;;7.50;99.90;;;;;;5093471;28;20055;-64
2023/05/19 03:31:15;;;;;;;13.27;5.32;;;7.30;99.90;;;;;;5096995;28;20039;-64
2023/05/19 03:33:41;;;;;;;10.55;5.78;;;7.30;99.90;;;;;;5080580;28;20077;-64
2023/05/19 03:36:07;;;;;;;10.55;5.63;;;7.30;99.90;;;;;;5080068;28;20048;-64
2023/05/19 03:38:34;;;;;;;10.02;5.85;;;7.40;99.90;;;;;;5096524;28;20391;-64
2023/05/19 03:41:00;;;;;;;10.55;5.97;;;7.40;99.90;;;;;;5097038;28;20075;-64
2023/05/19 03:43:26;;;;;;;11.45;5.32;;;7.30;99.90;;;;;;5097020;28;20093;-64
2023/05/19 03:45:53;;;;;;;13.75;5.70;;;7.30;99.90;;;;;;5108257;28;20047;-66
2023/05/19 03:48:20;;;;;;;10.05;5.22;;;7.30;99.90;;;;;;5118066;27;20408;-66
2023/05/19 03:50:47;;;;;;;14.80;5.60;;;7.30;99.90;;;;;;5115446;27;20043;-67
2023/05/19 03:53:13;;;;;;;15.23;5.32;;;7.40;99.90;;;;;;5116275;27;20066;-65
2023/05/19 03:55:39;;;;;;;10.88;5.53;;;7.40;99.90;;;;;;5100927;28;20058;-66
2023/05/19 03:58:06;;;;;;;10.10;5.18;;;7.40;99.90;;;;;;5094206;28;20056;-65
2023/05/19 04:00:32;;;;;;;13.07;5.15;;;7.30;99.90;;;;;;5094870;28;20051;-66
2023/05/19 04:02:59;;;;;;;10.80;5.03;;;7.40;99.90;;;;;;5095209;28;20048;-66
2023/05/19 04:05:25;;;;;;;11.50;5.85;;;7.40;99.90;;;;;;5100267;28;20426;-66
2023/05/19 04:07:51;;;;;;;14.25;5.97;;;7.40;99.90;;;;;;5112074;28;20043;-66
2023/05/19 04:10:18;;;;;;;12.38;5.63;;;7.40;99.90;;;;;;5115454;27;20055;-66
2023/05/19 04:12:45;;;;;;;10.48;5.35;;;7.50;99.90;;;;;;5098593;27;20051;-66
2023/05/19 04:15:11;;;;;;;14.15;5.65;;;7.50;99.90;;;;;;5108457;28;20120;-65
2023/05/19 04:17:38;;;;;;;14.73;7.07;;;7.50;99.90;;;;;;5096749;28;20119;-66
2023/05/19 04:20:05;;;;;;;14.38;6.45;;;7.60;99.90;;;;;;5095167;28;20162;-66
2023/05/19 04:22:32;;;;;;;13.40;6.20;;;7.50;99.90;;;;;;5094556;28;20044;-66
2023/05/19 04:24:59;;;;;;;10.85;5.97;;;7.60;99.90;;;;;;5097359;27;20043;-66
2023/05/19 04:27:26;;;;;;;14.18;6.00;;;7.60;99.90;;;;;;5115528;28;20043;-66
2023/05/19 04:29:53;;;;;;;13.88;5.50;;;7.60;99.90;;;;;;5098248;27;20106;-66
2023/05/19 04:32:19;;;;;;;13.85;6.45;;;7.70;99.90;;;;;;5115013;28;20092;-66
2023/05/19 04:34:46;;;;;;;13.95;5.85;;;7.70;99.90;;;;;;5111767;28;20058;-66
2023/05/19 04:37:15;;;;;;;11.77;6.00;;;7.70;99.90;;;;;;5094642;28;20050;-65
2023/05/19 04:39:44;;;;;;;10.27;5.85;;;7.90;99.90;;;;;;5094845;28;20056;-66
2023/05/19 04:42:10;;;;;;;16.13;6.15;;;7.90;99.90;;;;;;5094486;28;20043;-66
2023/05/19 04:44:38;;;;;;;14.40;6.57;;;7.90;99.90;;;;;;5094820;28;20116;-65
2023/05/19 04:47:09;;;;;;;14.07;6.07;;;8.00;99.90;;;;;;5096721;28;20054;-65
2023/05/19 04:49:38;;;;;;;11.27;6.15;;;8.10;99.90;;;;;;5101217;27;20050;-66
2023/05/19 04:52:06;;;;;;;12.13;6.60;;;8.40;99.90;;;;;;5102004;27;20079;-66
2023/05/19 04:54:36;;;;;;;11.10;6.13;;;8.70;99.90;;;;;;5117938;27;20088;-65
2023/05/19 04:57:03;;;;;;;9.90;5.65;;;9.10;99.90;;;;;;5108823;27;20047;-66
2023/05/19 04:59:30;;;;;;;12.18;6.05;;;9.60;99.90;;;;;;5119515;27;20047;-66
2023/05/19 05:01:56;;;;;;;11.23;5.70;;;10.30;99.90;;;;;;5118890;27;20100;-67
2023/05/19 05:04:23;;;;;;;9.82;6.10;;;10.90;99.90;;;;;;5101808;27;20047;-66
2023/05/19 05:06:49;;;;;;;11.73;6.47;;;11.20;99.90;;;;;;5098170;28;20405;-66
2023/05/19 05:09:16;;;;;;;11.27;5.90;;;11.40;99.90;;;;;;5078505;28;20051;-67
2023/05/19 05:11:43;;;;;;;12.27;5.95;;;11.90;99.90;;;;;;5094966;28;20056;-66
2023/05/19 05:14:10;;;;;;;12.27;6.32;;;12.50;99.90;;;;;;5097997;28;20372;-66
2023/05/19 05:16:37;;;;;;;12.65;6.05;;;12.90;99.90;;;;;;5096187;28;20051;-66
2023/05/19 05:19:03;;;;;;;9.57;5.45;;;13.40;99.90;;;;;;5100186;27;20048;-65
2023/05/19 05:21:30;;;;;;;11.20;6.50;;;13.50;99.90;;;;;;5101186;27;20087;-66
2023/05/19 05:23:57;;;;;;;10.50;5.35;;;13.30;99.90;;;;;;5118948;27;20418;-66
2023/05/19 05:26:30;;;;;;;12.00;6.18;;;13.20;99.90;;;;;;5098537;28;20063;-66
2023/05/19 05:28:56;;;;;;;10.15;5.78;;;13.40;99.90;;;;;;5095619;28;20052;-66
2023/05/19 05:31:22;;;;;;;9.10;5.60;;;13.50;99.90;;;;;;5097794;28;20495;-66
2023/05/19 05:33:49;;;;;;;9.77;6.30;;;13.80;99.90;;;;;;5098311;28;20475;-66
2023/05/19 05:36:15;;;;;;;13.52;5.93;;;14.10;99.90;;;;;;5113158;27;20051;-67
2023/05/19 05:38:41;;;;;;;11.07;5.28;;;14.30;99.90;;;;;;5118443;27;20062;-67
2023/05/19 05:41:08;;;;;;;9.80;6.00;;;13.70;99.90;;;;;;5118205;27;20117;-67
2023/05/19 05:43:34;;;;;;;10.57;5.60;;;13.60;99.90;;;;;;5118263;27;20043;-67
2023/05/19 05:46:00;;;;;;;13.15;5.78;;;13.80;99.90;;;;;;5103081;28;20052;-66
2023/05/19 05:48:27;;;;;;;10.32;6.25;;;14.30;99.90;;;;;;5089004;28;20089;-66
2023/05/19 05:50:55;;;;;;;11.85;7.05;;;14.80;99.90;;;;;;5087754;28;20047;-66
2023/05/19 05:53:24;;;;;;;9.27;6.18;;;15.00;99.90;;;;;;5071466;28;20047;-65
2023/05/19 05:55:52;;;;;;;11.02;5.72;;;15.30;99.90;;;;;;5075161;28;20259;-66
2023/05/19 05:58:20;;;;;;;9.90;5.82;;;15.60;99.90;;;;;;5059008;28;20057;-66
2023/05/19 06:00:48;;;;;;;11.13;6.28;;;15.80;99.90;;;;;;5062698;28;20131;-66
2023/05/19 06:03:15;;;;;;;12.95;5.78;;;16.30;99.90;;;;;;5086435;28;20051;-65
2023/05/19 06:05:41;;;;;;;10.70;5.55;;;16.40;99.90;;;;;;5096370;28;20069;-66
2023/05/19 06:08:08;;;;;;;12.50;5.70;;;16.40;99.90;;;;;;5071878;28;20041;-66
2023/05/19 06:10:35;;;;;;;9.85;5.68;;;16.50;99.90;;;;;;5085004;28;20058;-66
2023/05/19 06:13:01;;;;;;;9.82;5.40;;;16.30;99.90;;;;;;5091216;28;20063;-66
2023/05/19 06:15:27;;;;;;;9.80;5.50;;;16.60;99.90;;;;;;5101768;28;20052;-66
2023/05/19 06:17:54;;;;;;;11.68;6.75;;;17.10;99.90;;;;;;5083705;28;20341;-65
2023/05/19 06:20:20;;;;;;;10.20;6.05;;;17.00;99.90;;;;;;5076714;28;20048;-65
2023/05/19 06:22:46;;;;;;;8.48;5.40;;;17.10;99.90;;;;;;5077006;28;20044;-66
2023/05/19 06:25:13;;;;;;;9.65;5.43;;;17.20;99.90;;;;;;5088974;27;20043;-66
2023/05/19 06:27:39;;;;;;;7.07;4.60;;;17.10;99.90;;;;;;5117819;27;20099;-66
2023/05/19 06:30:07;;;;;;;8.63;5.68;;;17.30;99.90;;;;;;5114062;28;20063;-66
2023/05/19 06:32:33;;;;;;;10.18;5.60;;;17.40;99.90;;;;;;5114404;28;20055;-66
2023/05/19 06:35:00;;;;;;;9.70;5.20;;;17.70;99.90;;;;;;5095944;28;20047;-65
2023/05/19 06:37:26;;;;;;;8.85;4.75;;;17.80;99.90;;;;;;5093991;28;20136;-65
2023/05/19 06:39:53;;;;;;;10.43;6.07;;;17.80;99.90;;;;;;5079597;28;20043;-66
2023/05/19 06:42:21;;;;;;;8.13;4.53;;;18.10;99.90;;;;;;5078440;28;20081;-65
2023/05/19 06:44:48;;;;;;;18.17;5.57;;;18.00;99.90;;;;;;5079493;28;20105;-66
2023/05/19 06:47:15;;;;;;;10.77;4.25;;;17.80;99.90;;;;;;5097024;28;20081;-65
2023/05/19 06:49:49;;;;;;;11.55;5.05;;;18.20;99.90;;;;;;5096687;28;20043;-66
2023/05/19 06:52:31;;;;;;;9.70;5.10;;;18.60;99.90;;;;;;5096939;28;20557;-66
2023/05/19 06:54:57;;;;;;;9.45;4.72;;;18.10;99.90;;;;;;5096455;28;20055;-65
2023/05/19 06:57:24;;;;;;;8.13;4.90;;;18.40;99.90;;;;;;5096543;28;20127;-65
2023/05/19 06:59:50;;;;;;;8.00;5.00;;;18.30;99.90;;;;;;5114586;28;20043;-66
2023/05/19 07:02:16;;;;;;;8.88;4.43;;;18.30;99.90;;;;;;5079366;28;20047;-66
2023/05/19 07:04:42;;;;;;;11.85;4.55;;;17.60;99.90;;;;;;5114470;28;20039;-67
2023/05/19 07:07:09;;;;;;;9.48;4.93;;;17.10;99.90;;;;;;5114682;28;20039;-65
2023/05/19 07:09:35;;;;;;;6.55;4.38;;;16.80;99.90;;;;;;5096404;28;20457;-65
2023/05/19 07:12:01;;;;;;;8.55;4.72;;;16.70;99.90;;;;;;5096311;28;20059;-66
2023/05/19 07:14:28;;;;;;;8.18;4.57;;;16.60;99.90;;;;;;5096086;28;20104;-65
2023/05/19 07:16:54;;;;;;;8.15;4.78;;;16.60;99.90;;;;;;5106779;28;20063;-65
2023/05/19 07:19:21;;;;;;;9.45;4.13;;;16.80;99.90;;;;;;5068152;28;20041;-65
2023/05/19 07:21:47;;;;;;;8.15;4.72;;;16.60;99.90;;;;;;5075040;28;20040;-65
2023/05/19 07:24:13;;;;;;;8.35;4.35;;;16.30;99.90;;;;;;5075803;28;20471;-65
2023/05/19 07:26:41;;;;;;;8.13;4.03;;;16.30;99.90;;;;;;5094114;28;20059;-65
2023/05/19 07:29:07;;;;;;;8.57;4.40;;;16.10;99.90;;;;;;5088079;28;20330;-65
2023/05/19 07:31:34;;;;;;;6.20;3.42;;;16.30;99.90;;;;;;5101294;28;20051;-66
2023/05/19 07:34:01;;;;;;;8.43;3.60;;;16.70;99.90;;;;;;5092988;28;20051;-66
2023/05/19 07:36:28;;;;;;;7.20;3.88;;;16.90;99.90;;;;;;5096187;28;20365;-65
2023/05/19 07:38:55;;;;;;;9.20;3.75;;;17.00;99.90;;;;;;5075653;28;20052;-65
2023/05/19 07:41:21;;;;;;;6.60;3.53;;;17.10;99.90;;;;;;5058208;28;20449;-66
2023/05/19 07:43:54;;;;;;;7.00;4.07;;;17.20;99.90;;;;;;5075735;28;20036;-66
2023/05/19 07:46:21;;;;;;;7.90;3.70;;;17.30;99.90;;;;;;5058649;28;20044;-65
2023/05/19 07:48:47;;;;;;;7.78;3.40;;;17.50;99.90;;;;;;5075468;28;20097;-65
2023/05/19 07:51:14;;;;;;;6.32;3.78;;;17.60;99.90;;;;;;5092958;28;20052;-65
2023/05/19 07:53:41;;;;;;;8.02;3.60;;;17.40;99.90;;;;;;5075522;28;20059;-65
2023/05/19 07:56:07;;;;;;;7.95;3.80;;;17.10;99.90;;;;;;5074650;28;20052;-65
2023/05/19 07:58:33;;;;;;;9.43;4.25;;;17.10;99.90;;;;;;5093247;28;20063;-66
2023/05/19 08:01:00;;;;;;;6.75;3.85;;;16.90;99.90;;;;;;5074934;28;20051;-65
2023/05/19 08:03:26;;;;;;;9.95;3.80;;;16.80;99.90;;;;;;5075178;28;20056;-66
2023/05/19 08:05:52;;;;;;;5.47;3.60;;;16.70;99.90;;;;;;5074514;28;20055;-66
2023/05/19 08:08:19;;;;;;;7.63;3.47;;;16.80;99.90;;;;;;5092975;28;20044;-65
2023/05/19 08:10:45;;;;;;;8.73;3.40;;;17.00;99.90;;;;;;5074586;28;20052;-66
2023/05/19 08:13:11;;;;;;;6.93;3.13;;;16.80;99.90;;;;;;5075161;28;20060;-66
2023/05/19 08:15:37;;;;;;;9.40;3.47;;;16.90;99.90;;;;;;5074528;28;20052;-65
2023/05/19 08:18:04;;;;;;;7.00;3.20;;;17.00;99.90;;;;;;5063968;28;20051;-66
2023/05/19 08:20:30;;;;;;;7.57;3.75;;;17.10;99.90;;;;;;5077814;28;20063;-65
2023/05/19 08:22:56;;;;;;;7.90;3.58;;;17.00;99.70;;;;;;5112699;28;20046;-65
2023/05/19 08:25:23;;;;;;;6.97;3.75;;;16.90;99.90;;;;;;5087534;28;20078;-66
2023/05/19 08:27:49;;;;;;;5.03;3.25;;;16.90;99.80;;;;;;5077255;28;20318;-66
2023/05/19 08:30:15;;;;;;;10.38;4.63;;;17.10;99.90;;;;;;5092422;28;20447;-65
2023/05/19 08:32:42;;;;;;;8.88;3.72;;;17.10;99.80;;;;;;5094846;28;20386;-66
2023/05/19 08:35:08;;;;;;;11.20;3.05;;;17.10;99.80;;;;;;5077095;28;20059;-65
2023/05/19 08:37:36;;;;;;;7.95;2.90;;;17.10;99.50;;;;;;5094454;28;20043;-65
2023/05/19 08:40:04;;;;;;;6.68;3.17;;;17.30;99.50;;;;;;5094846;28;20484;-66
2023/05/19 08:42:34;;;;;;;5.75;3.50;;;17.30;99.10;;;;;;5094769;28;20361;-65
2023/05/19 08:45:01;;;;;;;8.73;3.40;;;17.30;99.00;;;;;;5094778;28;20050;-66
2023/05/19 08:47:28;;;;;;;7.15;2.83;;;17.10;99.00;;;;;;5095053;28;20048;-66
2023/05/19 08:50:03;;;;;;;4.85;2.60;;;17.10;99.10;;;;;;5094656;28;20066;-68
2023/05/19 08:53:16;;;;;;;6.60;3.58;;;17.20;98.20;;;;;;5095213;28;20404;-66
2023/05/19 08:56:10;;;;;;;7.07;3.30;;;17.30;98.50;;;;;;5086677;28;20063;-67
2023/05/19 08:58:42;;;;;;;8.90;3.33;;;17.20;98.30;;;;;;5074853;28;20059;-65
2023/05/19 09:01:12;;;;;;;8.25;3.33;;;17.30;98.20;;;;;;5056407;28;20105;-62
2023/05/19 09:03:39;;;;;;;6.90;3.63;;;17.40;98.50;;;;;;5073757;28;20057;-64
2023/05/19 09:06:11;;;;;;;9.77;3.65;;;17.40;98.20;;;;;;5093390;28;20060;-66
2023/05/19 09:08:38;;;;;;;7.47;3.30;;;17.60;98.50;;;;;;5110835;28;20105;-66
2023/05/19 09:11:05;;;;;;;7.85;3.30;;;17.70;97.80;;;;;;5094546;28;20236;-66
2023/05/19 09:13:31;;;;;;;5.93;3.05;;;17.70;97.80;;;;;;5111945;28;20051;-66
2023/05/19 09:15:58;;;;;;;5.03;3.00;;;17.70;97.90;;;;;;5110906;28;20052;-66
2023/05/19 09:18:25;;;;;;;7.05;3.40;;;17.80;97.80;;;;;;5111590;28;20047;-66
2023/05/19 09:20:59;;;;;;;7.75;3.10;;;17.70;97.30;;;;;;5111726;28;20052;-66
2023/05/19 09:23:31;;;;;;;5.38;2.97;;;17.70;97.40;;;;;;5111197;28;20408;-67
2023/05/19 09:26:02;;;;;;;7.95;3.40;;;17.70;97.30;;;;;;5087043;28;20467;-66
2023/05/19 09:28:31;;;;;;;9.93;3.40;;;17.70;97.00;;;;;;5094294;28;20060;-66
2023/05/19 09:31:02;;;;;;;6.30;2.63;;;17.70;97.40;;;;;;5093868;28;20044;-66
2023/05/19 09:33:29;;;;;;;8.80;3.25;;;17.70;96.90;;;;;;5094758;28;20059;-66
2023/05/19 09:35:56;;;;;;;6.30;3.20;;;17.60;97.00;;;;;;5102651;28;20116;-66
2023/05/19 09:38:24;;;;;;;7.25;3.10;;;17.50;97.30;;;;;;5098407;28;20051;-65
2023/05/19 09:40:51;;;;;;;4.95;2.80;;;17.50;96.90;;;;;;5097758;28;20058;-66
2023/05/19 09:43:18;;;;;;;7.38;3.97;;;17.50;96.80;;;;;;5098108;28;20040;-66
2023/05/19 09:45:44;;;;;;;9.05;3.58;;;17.50;96.90;;;;;;5109436;28;20043;-66
2023/05/19 09:48:11;;;;;;;6.88;3.30;;;17.50;96.90;;;;;;5098337;28;20044;-66
2023/05/19 09:50:37;;;;;;;6.45;3.30;;;17.70;97.10;;;;;;5097373;28;20353;-66
2023/05/19 09:53:04;;;;;;;6.43;3.33;;;17.90;97.00;;;;;;5098347;28;20052;-66
2023/05/19 09:55:31;;;;;;;8.15;3.78;;;18.00;96.50;;;;;;5083976;28;20490;-66
2023/05/19 09:58:02;;;;;;;7.95;3.40;;;18.10;96.20;;;;;;5115043;28;20065;-66
2023/05/19 10:00:31;;;;;;;7.43;3.30;;;18.30;96.40;;;;;;5114492;28;20078;-66
2023/05/19 10:02:59;;;;;;;6.05;3.35;;;18.50;96.10;;;;;;5114587;28;20367;-66
2023/05/19 10:05:27;;;;;;;7.88;3.40;;;18.80;96.00;;;;;;5111916;28;20039;-66
2023/05/19 10:07:54;;;;;;;9.30;4.30;;;18.70;95.80;;;;;;5098072;28;20048;-65
2023/05/19 10:10:21;;;;;;;7.22;3.40;;;18.70;95.00;;;;;;5097323;28;20104;-65
2023/05/19 10:12:48;;;;;;;6.63;3.30;;;18.80;95.70;;;;;;5081071;28;20433;-65
2023/05/19 10:15:16;;;;;;;5.80;3.42;;;19.00;95.60;;;;;;5097887;28;20051;-66
2023/05/19 10:17:44;;;;;;;7.55;3.42;;;18.90;95.30;;;;;;5110027;28;20048;-65
2023/05/19 10:20:12;;;;;;;5.90;3.45;;;18.90;95.20;;;;;;5114499;28;20048;-66
2023/05/19 10:22:41;;;;;;;5.80;3.95;;;18.90;95.00;;;;;;5114536;28;20056;-66
2023/05/19 10:25:10;;;;;;;7.47;4.18;;;19.10;94.90;;;;;;5097158;27;20460;-66
2023/05/19 10:27:40;;;;;;;7.72;3.78;;;19.20;94.70;;;;;;5097686;28;20056;-65
2023/05/19 10:30:15;;;;;;;6.72;3.17;;;19.00;94.50;;;;;;5096955;28;20051;-66
2023/05/19 10:32:43;;;;;;;5.47;3.28;;;19.00;94.30;;;;;;5098004;28;20058;-66
2023/05/19 10:35:19;;;;;;;6.63;3.22;;;19.00;94.30;;;;;;5100673;27;20054;-66
2023/05/19 10:38:04;;;;;;;6.80;3.08;;;19.10;94.30;;;;;;5117842;27;20043;-66
2023/05/19 10:40:39;;;;;;;9.00;4.10;;;19.20;94.20;;;;;;5117896;27;20416;-65
2023/05/19 10:43:35;;;;;;;5.82;2.90;;;19.30;93.70;;;;;;5117301;27;20051;-67
2023/05/19 10:46:03;;;;;;;7.25;3.22;;;19.40;93.70;;;;;;5088144;27;20051;-65
2023/05/19 10:48:33;;;;;;;6.60;3.00;;;19.20;93.30;;;;;;5117548;27;20047;-65
2023/05/19 10:50:59;;;;;;;6.10;3.30;;;19.30;93.50;;;;;;5099987;27;20051;-66
2023/05/19 10:53:30;;;;;;;6.75;3.35;;;19.40;93.80;;;;;;5089901;28;20455;-65
2023/05/19 10:56:01;;;;;;;7.57;3.08;;;19.40;93.00;;;;;;5090151;28;20464;-66
2023/05/19 10:58:42;;;;;;;6.55;3.33;;;19.30;93.70;;;;;;5091361;28;20044;-66
2023/05/19 11:01:13;;;;;;;7.63;2.90;;;19.20;93.10;;;;;;5083486;28;20061;-67
2023/05/19 11:03:52;;;;;;;6.60;3.15;;;19.10;93.40;;;;;;5079308;28;20498;-65
2023/05/19 11:06:32;;;;;;;5.65;2.65;;;19.00;92.80;;;;;;5090783;28;20050;-65
2023/05/19 11:09:10;;;;;;;7.07;3.10;;;19.10;93.30;;;;;;5096899;28;20039;-66
2023/05/19 11:11:47;;;;;;;6.65;3.53;;;19.20;92.90;;;;;;5079947;28;20382;-65
2023/05/19 11:14:18;;;;;;;7.63;3.03;;;19.00;93.10;;;;;;5096877;28;20047;-65
2023/05/19 11:16:50;;;;;;;5.28;3.35;;;19.10;93.20;;;;;;5095922;27;20058;-66
2023/05/19 11:19:27;;;;;;;6.68;2.85;;;19.30;93.30;;;;;;5117556;27;20069;-66
2023/05/19 11:21:55;;;;;;;7.05;2.80;;;19.40;93.20;;;;;;5116949;27;20086;-65
2023/05/19 11:24:51;;;;;;;6.68;3.20;;;19.40;93.20;;;;;;5116823;27;20116;-66
2023/05/19 11:27:18;;;;;;;5.93;2.80;;;19.60;92.60;;;;;;5076500;28;20083;-65
2023/05/19 11:29:47;;;;;;;5.75;2.97;;;19.70;92.90;;;;;;5079145;28;20361;-65
2023/05/19 11:32:14;;;;;;;6.40;2.60;;;19.90;92.60;;;;;;5113897;28;20118;-65
2023/05/19 11:34:40;;;;;;;5.85;3.53;;;19.90;92.60;;;;;;5096755;28;20332;-65
2023/05/19 11:37:07;;;;;;;8.55;3.90;;;20.00;92.50;;;;;;5116265;27;20051;-65
2023/05/19 11:39:34;;;;;;;5.38;3.28;;;20.20;92.50;;;;;;5100086;27;20081;-66
2023/05/19 11:42:01;;;;;;;8.20;3.20;;;20.10;92.50;;;;;;5116659;27;20485;-66
2023/05/19 11:44:27;;;;;;;6.10;3.03;;;20.20;92.10;;;;;;5116656;27;20101;-65
2023/05/19 11:46:53;;;;;;;8.23;3.08;;;20.20;91.60;;;;;;5099498;27;20058;-65
2023/05/19 11:49:21;;;;;;;6.93;3.53;;;20.30;92.20;;;;;;5116742;27;20047;-66
2023/05/19 11:51:47;;;;;;;5.18;2.97;;;20.30;92.10;;;;;;5116166;27;20043;-66
2023/05/19 11:54:14;;;;;;;8.52;2.83;;;20.30;92.00;;;;;;5099707;27;20050;-66
2023/05/19 11:56:41;;;;;;;5.63;2.83;;;20.20;92.30;;;;;;5116333;27;20047;-66
2023/05/19 11:59:08;;;;;;;5.82;2.95;;;20.20;91.30;;;;;;5116003;27;20059;-66
2023/05/19 12:01:35;;;;;;;5.82;2.95;;;20.20;92.10;;;;;;5116290;27;20043;-66
2023/05/19 12:04:06;;;;;;;6.20;3.58;;;20.50;92.20;;;;;;5116484;27;20051;-65
2023/05/19 12:06:33;;;;;;;;;;;20.70;91.70;;;;;;5116435;27;20050;-66
2023/05/19 12:09:00;;;;;;;6.03;3.05;;;20.60;91.60;;;;;;5099120;27;19919;-66
2023/05/19 12:11:27;;;;;;;6.82;3.00;;;20.70;91.70;;;;;;5115946;27;20054;-65
2023/05/19 12:13:57;;;;;;;4.32;2.53;;;20.60;91.70;;;;;;5099485;27;20046;-66
2023/05/19 12:16:32;;;;;;;4.78;2.67;;;20.60;91.80;;;;;;5116125;27;20043;-66
2023/05/19 12:18:58;;;;;;;5.88;3.40;;;20.60;91.20;;;;;;5116493;27;20058;-65
2023/05/19 12:21:24;;;;;;;7.07;2.88;;;20.50;91.50;;;;;;5115818;27;20111;-66
2023/05/19 12:23:51;;;;;;;6.20;2.63;;;20.80;91.30;;;;;;5116232;27;20103;-66
2023/05/19 12:26:18;;;;;;;7.30;3.17;;;21.00;91.00;;;;;;5099040;28;20293;-66
2023/05/19 12:28:45;;;;;;;9.10;3.15;;;21.00;90.90;;;;;;5116117;27;20087;-66
2023/05/19 12:31:12;;;;;;;5.47;2.92;;;21.10;91.10;;;;;;5116609;27;20040;-66
2023/05/19 12:33:39;;;;;;;5.28;2.75;;;21.10;91.00;;;;;;5099134;28;20515;-68
2023/05/19 12:36:09;;;;;;;6.93;3.20;;;21.10;90.90;;;;;;5115913;28;20075;-67
2023/05/19 12:38:38;;;;;;;6.32;3.35;;;21.30;91.10;;;;;;5115839;28;20838;-67
2023/05/19 12:41:05;;;;;;;6.10;2.67;;;21.20;91.00;;;;;;5098667;28;20470;-66
2023/05/19 12:43:32;;;;;;;6.85;2.85;;;21.40;90.90;;;;;;5115611;28;20043;-66
2023/05/19 12:46:08;;;;;;;15.82;4.75;;;21.30;90.80;;;;;;5115768;28;20047;-66
2023/05/19 12:48:39;;;;;;;3.95;2.63;;;21.20;91.00;;;;;;5134249;28;20050;-66
2023/05/19 12:51:06;;;;;;;7.03;2.90;;;21.40;90.70;;;;;;5115400;28;20095;-66
2023/05/19 12:53:33;;;;;;;6.40;3.20;;;21.40;90.30;;;;;;5115940;28;20047;-67
2023/05/19 12:55:59;;;;;;;6.43;2.90;;;21.10;90.00;;;;;;5115560;28;20092;-65